Time;durP1;ratioP1;P1;durP2;ratioP2;P2;SDS_P1;SDS_P2;PMS_P1;PMS_P2;Temp;Humidity;BMP_temperature;BMP_pressure;BME280_temperature;BME280_humidity;BME280_pressure;Samples;Min_cycle;Max_cycle;Signal;HPM_P1;HPM_P2
2021/04/29 00:01:42;;;;;;;;;;;;;;;8.44;100.00;101420.17;1808349;79;20132;-75
2021/04/29 00:04:11;;;;;;;;;;;;;;;8.45;100.00;101418.44;1808361;79;20559;-75
2021/04/29 00:06:38;;;;;;;;;;;;;;;8.47;100.00;101419.19;1808566;78;20545;-75
2021/04/29 00:09:07;;;;;;;;;;;;;;;8.49;100.00;101418.66;1808458;79;21204;-75
2021/04/29 00:11:35;;;;;;;;;;;;;;;8.50;100.00;101414.72;1808260;79;20235;-75
2021/04/29 00:14:04;;;;;;;;;;;;;;;8.52;100.00;101410.75;1808235;79;20216;-75
2021/04/29 00:16:32;;;;;;;;;;;;;;;8.54;100.00;101404.23;1808042;78;20560;-75
2021/04/29 00:19:00;;;;;;;;;;;;;;;8.55;100.00;101400.30;1808404;78;20485;-75
2021/04/29 00:21:28;;;;;;;;;;;;;;;8.56;100.00;101407.58;1808232;78;21358;-75
2021/04/29 00:23:56;;;;;;;;;;;;;;;8.54;100.00;101411.55;1808253;79;20590;-75
2021/04/29 00:26:25;;;;;;;;;;;;;;;8.53;100.00;101407.27;1808331;79;20148;-75
2021/04/29 00:29:10;;;;;;;;;;;;;;;8.53;100.00;101403.84;1808326;78;20577;-75
2021/04/29 00:31:38;;;;;;;;;;;;;;;8.53;100.00;101400.80;1808273;78;20271;-75
2021/04/29 00:34:06;;;;;;;;;;;;;;;8.54;100.00;101384.38;1808456;79;22121;-75
2021/04/29 00:36:34;;;;;;;;;;;;;;;8.54;100.00;101387.42;1808390;79;20553;-75
2021/04/29 00:39:02;;;;;;;;;;;;;;;8.52;100.00;101382.30;1808308;79;20128;-76
2021/04/29 00:41:30;;;;;;;;;;;;;;;8.50;100.00;101388.01;1808234;79;20216;-75
2021/04/29 00:43:59;;;;;;;;;;;;;;;8.48;100.00;101388.55;1808398;79;20175;-75
2021/04/29 00:46:28;;;;;;;;;;;;;;;8.48;100.00;101388.55;1808328;79;21201;-75
2021/04/29 00:48:56;;;;;;;;;;;;;;;8.49;100.00;101394.92;1808123;78;20211;-75
2021/04/29 00:51:24;;;;;;;;;;;;;;;8.51;100.00;101392.28;1808362;78;20169;-75
2021/04/29 00:53:53;;;;;;;;;;;;;;;8.53;100.00;101393.04;1808408;78;20554;-76
2021/04/29 00:56:23;;;;;;;;;;;;;;;8.57;100.00;101391.16;1808425;79;20236;-75
2021/04/29 00:58:51;;;;;;;;;;;;;;;8.56;100.00;101394.19;1808281;78;21257;-75
2021/04/29 01:01:19;;;;;;;;;;;;;;;8.56;100.00;101397.23;1808098;78;20207;-75
2021/04/29 01:03:57;;;;;;;;;;;;;;;8.56;100.00;101392.05;1808306;78;20274;-75
2021/04/29 01:06:35;;;;;;;;;;;;;;;8.58;100.00;101388.52;1808462;79;20518;-74
2021/04/29 01:09:06;;;;;;;;;;;;;;;8.61;100.00;101381.91;1808364;79;20240;-75
2021/04/29 01:11:37;;;;;;;;;;;;;;;8.64;100.00;101379.63;1808451;79;20486;-74
2021/04/29 01:14:06;;;;;;;;;;;;;;;8.66;100.00;101371.32;1790326;79;20525;-74
2021/04/29 01:16:34;;;;;;;;;;;;;;;8.66;100.00;101369.58;1808626;78;20128;-74
2021/04/29 01:19:02;;;;;;;;;;;;;;;8.68;100.00;101370.33;1808358;79;20718;-74
2021/04/29 01:21:32;;;;;;;;;;;;;;;8.70;100.00;101359.92;1808311;79;20236;-75
2021/04/29 01:24:16;;;;;;;;;;;;;;;8.71;100.00;101357.25;1808536;79;21371;-74
2021/04/29 01:26:54;;;;;;;;;;;;;;;8.73;100.00;101353.31;1816184;78;20128;-74
2021/04/29 01:29:24;;;;;;;;;;;;;;;8.72;100.00;101358.09;1808464;79;20124;-74
2021/04/29 01:31:53;;;;;;;;;;;;;;;8.70;100.00;101356.05;1808444;79;20108;-75
2021/04/29 01:34:23;;;;;;;;;;;;;;;8.69;100.00;101353.06;1808579;78;20109;-75
2021/04/29 01:36:51;;;;;;;;;;;;;;;8.67;100.00;101350.56;1808624;78;21187;-75
2021/04/29 01:39:20;;;;;;;;;;;;;;;8.65;100.00;101352.36;1808448;79;20564;-74
2021/04/29 01:41:50;;;;;;;;;;;;;;;8.64;100.00;101350.71;1808574;78;20211;-75
2021/04/29 01:44:19;;;;;;;;;;;;;;;8.65;100.00;101357.54;1808632;79;20715;-74
2021/04/29 01:46:47;;;;;;;;;;;;;;;8.64;100.00;101358.92;1808550;79;20140;-74
2021/04/29 01:49:18;;;;;;;;;;;;;;;8.62;100.00;101364.61;1808640;79;22114;-75
2021/04/29 01:51:47;;;;;;;;;;;;;;;8.61;100.00;101365.53;1808282;79;20239;-74
2021/04/29 01:54:16;;;;;;;;;;;;;;;8.60;100.00;101368.57;1808585;79;20128;-74
2021/04/29 01:56:45;;;;;;;;;;;;;;;8.59;100.00;101365.59;1808481;78;20223;-73
2021/04/29 01:59:13;;;;;;;;;;;;;;;8.59;100.00;101365.59;1808678;79;20490;-73
2021/04/29 02:01:42;;;;;;;;;;;;;;;8.58;100.00;101371.70;1808532;79;21198;-73
2021/04/29 02:04:11;;;;;;;;;;;;;;;8.56;100.00;101370.06;1808410;79;20144;-72
2021/04/29 02:06:43;;;;;;;;;;;;;;;8.55;100.00;101360.65;1808627;78;20152;-72
2021/04/29 02:09:11;;;;;;;;;;;;;;;8.54;100.00;101359.80;1808428;78;20148;-73
2021/04/29 02:11:51;;;;;;;;;;;;;;;8.54;100.00;101362.84;1808699;78;20549;-73
2021/04/29 02:14:21;;;;;;;;;;;;;;;8.54;100.00;101366.72;1807607;79;21203;-74
2021/04/29 02:16:50;;;;;;;;;;;;;;;8.54;100.00;101364.14;1808345;79;20521;-73
2021/04/29 02:19:21;;;;;;;;;;;;;;;8.54;100.00;101372.73;1808492;78;20148;-73
2021/04/29 02:21:48;;;;;;;;;;;;;;;8.54;100.00;101370.60;1808482;78;20273;-73
2021/04/29 02:24:18;;;;;;;;;;;;;;;8.54;100.00;101370.60;1808563;78;20132;-73
2021/04/29 02:26:49;;;;;;;;;;;;;;;8.53;100.00;101370.20;1808517;79;20964;-73
2021/04/29 02:29:17;;;;;;;;;;;;;;;8.53;100.00;101370.20;1808495;78;20133;-73
2021/04/29 02:31:45;;;;;;;;;;;;;;;8.54;100.00;101365.43;1808526;79;20129;-74
2021/04/29 02:34:14;;;;;;;;;;;;;;;8.53;100.00;101362.45;1808542;78;20239;-74
2021/04/29 02:36:43;;;;;;;;;;;;;;;8.53;100.00;101361.16;1790685;79;20223;-73
2021/04/29 02:39:15;;;;;;;;;;;;;;;8.52;100.00;101357.73;1808536;78;22084;-73
2021/04/29 02:41:44;;;;;;;;;;;;;;;8.51;100.00;101359.95;1808450;79;20112;-73
2021/04/29 02:44:13;;;;;;;;;;;;;;;8.53;100.00;101359.86;1808426;79;20490;-73
2021/04/29 02:46:41;;;;;;;;;;;;;;;8.54;100.00;101357.22;1808336;78;20236;-73
2021/04/29 02:49:11;;;;;;;;;;;;;;;8.55;100.00;101356.77;1808616;78;20200;-74
2021/04/29 02:51:40;;;;;;;;;;;;;;;8.56;100.00;101359.27;1808549;78;21371;-74
2021/04/29 02:54:09;;;;;;;;;;;;;;;8.58;100.00;101362.64;1808375;79;20296;-74
2021/04/29 02:56:41;;;;;;;;;;;;;;;8.61;100.00;101356.03;1808611;78;20144;-73
2021/04/29 02:59:09;;;;;;;;;;;;;;;8.65;100.00;101365.75;1808390;79;20196;-74
2021/04/29 03:01:39;;;;;;;;;;;;;;;8.66;100.00;101362.27;1808558;79;20148;-73
2021/04/29 03:04:08;;;;;;;;;;;;;;;8.63;100.00;101357.23;1808425;78;21651;-73
2021/04/29 03:06:37;;;;;;;;;;;;;;;8.62;100.00;101351.67;1808351;79;20172;-72
2021/04/29 03:09:07;;;;;;;;;;;;;;;8.62;100.00;101347.34;1808559;79;20128;-72
2021/04/29 03:11:35;;;;;;;;;;;;;;;8.63;100.00;101348.18;1808514;79;20129;-72
2021/04/29 03:14:04;;;;;;;;;;;;;;;8.63;100.00;101357.23;1808490;79;20228;-73
2021/04/29 03:16:31;;;;;;;;;;;;;;;8.64;100.00;101362.80;1804972;79;22224;-72
2021/04/29 03:19:01;;;;;;;;;;;;;;;8.67;100.00;101365.25;1792952;80;20525;-73
2021/04/29 03:21:31;;;;;;;;;;;;;;;8.67;100.00;101368.67;1792982;79;20155;-72
2021/04/29 03:23:59;;;;;;;;;;;;;;;8.67;100.00;101369.97;1792988;80;20544;-72
2021/04/29 03:26:27;;;;;;;;;;;;;;;8.66;100.00;101370.03;1792962;80;20138;-72
2021/04/29 03:28:55;;;;;;;;;;;;;;;8.64;100.00;101378.33;1793053;80;21289;-72
2021/04/29 03:31:23;;;;;;;;;;;;;;;8.63;100.00;101374.89;1792827;80;20302;-72
2021/04/29 03:33:52;;;;;;;;;;;;;;;8.64;100.00;101383.05;1792802;80;20135;-73
2021/04/29 03:36:20;;;;;;;;;;;;;;;8.67;100.00;101384.65;1792903;80;20135;-73
2021/04/29 03:39:02;;;;;;;;;;;;;;;8.70;100.00;101390.53;1793068;79;20190;-72
2021/04/29 03:41:31;;;;;;;;;;;;;;;8.72;100.00;101392.58;1828702;78;22079;-72
2021/04/29 03:43:59;;;;;;;;;;;;;;;8.75;100.00;101397.61;1828550;78;20189;-73
2021/04/29 03:46:28;;;;;;;;;;;;;;;8.77;100.00;101398.39;1828701;78;20190;-73
2021/04/29 03:48:56;;;;;;;;;;;;;;;8.79;100.00;101404.33;1828772;78;20679;-73
2021/04/29 03:51:25;;;;;;;;;;;;;;;8.81;100.00;101405.08;1828766;78;20503;-72
2021/04/29 03:53:54;;;;;;;;;;;;;;;8.85;100.00;101403.19;1828828;78;21179;-73
2021/04/29 03:56:22;;;;;;;;;;;;;;;8.87;100.00;101406.08;1828410;78;20221;-73
2021/04/29 03:58:51;;;;;;;;;;;;;;;8.89;100.00;101408.61;1828537;78;20205;-73
2021/04/29 04:01:21;;;;;;;;;;;;;;;8.90;100.00;101405.12;1828606;78;20169;-73
2021/04/29 04:03:49;;;;;;;;;;;;;;;8.90;100.00;101405.94;1828866;78;20107;-73
2021/04/29 04:06:18;;;;;;;;;;;;;;;8.93;100.00;101401.09;1828874;78;20508;-73
2021/04/29 04:08:45;;;;;;;;;;;;;;;8.96;100.00;101400.50;1828707;78;20557;-73
2021/04/29 04:11:14;;;;;;;;;;;;;;;9.00;100.00;101397.28;1828753;78;20487;-73
2021/04/29 04:13:42;;;;;;;;;;;;;;;9.01;100.00;101396.37;1828777;78;20286;-73
2021/04/29 04:16:14;;;;;;;;;;;;;;;9.04;100.00;101396.23;1828678;78;20154;-73
2021/04/29 04:18:43;;;;;;;;;;;;;;;9.08;100.00;101395.63;1828846;78;21023;-72
2021/04/29 04:21:11;;;;;;;;;;;;;;;9.12;100.00;101391.54;1828508;78;20539;-72
2021/04/29 04:23:38;;;;;;;;;;;;;;;9.17;100.00;101388.70;1828803;78;20277;-72
2021/04/29 04:26:06;;;;;;;;;;;;;;;9.22;100.00;101390.16;1828618;78;20210;-72
2021/04/29 04:28:34;;;;;;;;;;;;;;;9.26;100.00;101387.80;1828709;78;20127;-72
2021/04/29 04:31:03;;;;;;;;;;;;;;;9.30;100.00;101385.91;1828590;78;21220;-72
2021/04/29 04:33:30;;;;;;;;;;;;;;;9.34;100.00;101384.84;1828476;78;20138;-72
2021/04/29 04:35:58;;;;;;;;;;;;;;;9.41;100.00;101394.00;1828648;78;20130;-72
2021/04/29 04:38:26;;;;;;;;;;;;;;;9.46;100.00;101398.48;1828607;78;20300;-72
2021/04/29 04:40:55;;;;;;;;;;;;;;;9.51;100.00;101404.27;1851392;76;20215;-72
2021/04/29 04:43:23;;;;;;;;;;;;;;;9.57;100.00;101404.80;1863481;76;22119;-72
2021/04/29 04:45:51;;;;;;;;;;;;;;;9.62;100.00;101399.39;1863172;76;20469;-72
2021/04/29 04:48:19;;;;;;;;;;;;;;;9.68;100.00;101402.13;1863384;76;20494;-72
2021/04/29 04:50:47;;;;;;;;;;;;;;;9.72;100.00;101407.55;1863218;77;20262;-72
2021/04/29 04:53:15;;;;;;;;;;;;;;;9.73;100.00;101406.16;1863276;77;20215;-72
2021/04/29 04:55:47;;;;;;;;;;;;;;;9.76;100.00;101406.48;1863489;77;21191;-72
2021/04/29 04:58:17;;;;;;;;;;;;;;;9.76;100.00;101403.44;1863207;77;20478;-72
2021/04/29 05:00:48;;;;;;;;;;;;;;;9.75;100.00;101404.80;1863228;77;20152;-72
2021/04/29 05:03:16;;;;;;;;;;;;;;;9.78;100.00;101402.05;1863267;77;20290;-72
2021/04/29 05:05:49;;;;;;;;;;;;;;;9.81;100.00;101401.44;1863352;77;20211;-72
2021/04/29 05:08:17;;;;;;;;;;;;;;;9.87;100.00;101397.23;1863503;76;21792;-72
2021/04/29 05:10:45;;;;;;;;;;;;;;;9.93;100.00;101399.50;1863602;77;20140;-72
2021/04/29 05:13:13;;;;;;;;;;;;;;;9.98;100.00;101396.69;1863550;76;20481;-72
2021/04/29 05:15:41;;;;;;;;;;;;;;;10.03;100.00;101396.82;1863410;76;20271;-72
2021/04/29 05:18:09;;;;;;;;;;;;;;;10.10;100.00;101392.16;1863497;76;20199;-72
2021/04/29 05:20:37;;;;;;;;;;;;;;;10.17;100.00;101396.14;1863694;76;22106;-72
2021/04/29 05:23:05;;;;;;;;;;;;;;;10.26;100.00;101394.81;1863511;77;20515;-72
2021/04/29 05:25:32;;;;;;;;;;;;;;;10.37;100.00;101395.09;1863294;77;20219;-72
2021/04/29 05:28:02;;;;;;;;;;;;;;;10.44;100.00;101397.25;1863374;76;20132;-72
2021/04/29 05:30:32;;;;;;;;;;;;;;;10.51;100.00;101398.61;1863310;77;20227;-73
2021/04/29 05:33:00;;;;;;;;;;;;;;;10.57;100.00;101401.33;1863400;77;22234;-74
2021/04/29 05:35:27;;;;;;;;;;;;;;;10.66;100.00;101403.91;1863287;76;20140;-73
2021/04/29 05:37:55;;;;;;;;;;;;;;;10.75;100.00;101400.34;1863442;76;20505;-73
2021/04/29 05:40:23;;;;;;;;;;;;;;;10.86;100.00;101401.88;1865433;76;20644;-74
2021/04/29 05:42:52;;;;;;;;;;;;;;;10.99;100.00;101403.33;1871511;76;20221;-73
2021/04/29 05:45:20;;;;;;;;;;;;;;;11.13;100.00;101399.50;1871633;75;22363;-72
2021/04/29 05:47:48;;;;;;;;;;;;;;;11.26;100.00;101388.80;1871491;76;20233;-73
2021/04/29 05:50:16;;;;;;;;;;;;;;;11.38;100.00;101392.44;1871719;76;20207;-73
2021/04/29 05:52:44;;;;;;;;;;;;;;;11.42;100.00;101386.95;1871676;76;20268;-74
2021/04/29 05:55:12;;;;;;;;;;;;;;;11.46;100.00;101385.02;1871491;75;20507;-73
2021/04/29 05:57:40;;;;;;;;;;;;;;;11.51;99.93;101383.84;1871586;75;21196;-74
2021/04/29 06:00:09;;;;;;;;;;;;;;;11.57;99.46;101379.59;1887981;74;20359;-73
2021/04/29 06:02:39;;;;;;;;;;;;;;;11.64;98.68;101380.06;1873570;75;20506;-74
2021/04/29 06:05:08;;;;;;;;;;;;;;;11.70;97.77;101382.33;1871579;75;20708;-74
2021/04/29 06:07:36;;;;;;;;;;;;;;;11.73;97.61;101382.15;1892924;74;20678;-75
2021/04/29 06:10:06;;;;;;;;;;;;;;;11.83;97.65;101383.73;1903661;74;20493;-73
2021/04/29 06:12:34;;;;;;;;;;;;;;;11.93;97.28;101388.77;1903934;75;20505;-72
2021/04/29 06:15:06;;;;;;;;;;;;;;;12.00;96.83;101386.14;1903961;74;20242;-72
2021/04/29 06:17:33;;;;;;;;;;;;;;;12.05;96.17;101394.53;1903815;75;20231;-74
2021/04/29 06:20:01;;;;;;;;;;;;;;;12.09;95.85;101390.81;1903992;74;20543;-73
2021/04/29 06:22:29;;;;;;;;;;;;;;;12.15;95.50;101397.79;1881234;75;21175;-73
2021/04/29 06:24:57;;;;;;;;;;;;;;;12.23;95.19;101401.66;1870892;76;20129;-75
2021/04/29 06:27:25;;;;;;;;;;;;;;;12.36;94.84;101415.60;1870440;75;20307;-73
2021/04/29 06:29:52;;;;;;;;;;;;;;;12.52;94.54;101417.63;1869676;75;20228;-72
2021/04/29 06:32:20;;;;;;;;;;;;;;;12.72;93.96;101423.28;1869893;76;20247;-73
2021/04/29 06:34:48;;;;;;;;;;;;;;;12.91;92.69;101422.95;1873116;75;22196;-75
2021/04/29 06:37:16;;;;;;;;;;;;;;;13.06;90.98;101422.44;1891802;74;20226;-74
2021/04/29 06:39:46;;;;;;;;;;;;;;;13.06;89.59;101426.34;1904154;74;20485;-74
2021/04/29 06:42:15;;;;;;;;;;;;;;;13.06;89.01;101431.09;1893046;74;20237;-75
2021/04/29 06:44:45;;;;;;;;;;;;;;;13.10;88.31;101427.39;1900465;75;20223;-76
2021/04/29 06:47:17;;;;;;;;;;;;;;;13.08;87.70;101438.83;1899525;75;21636;-75
2021/04/29 06:49:43;;;;;;;;;;;;;;;12.98;86.50;101435.97;1882178;75;20546;-74
2021/04/29 06:52:14;;;;;;;;;;;;;;;12.89;86.14;101441.73;1871375;76;20565;-75
2021/04/29 06:54:45;;;;;;;;;;;;;;;12.83;84.96;101449.94;1883493;75;20258;-74
2021/04/29 06:57:15;;;;;;;;;;;;;;;12.88;84.38;101457.02;1868714;76;20484;-76
2021/04/29 06:59:47;;;;;;;;;;;;;;;13.09;83.51;101454.84;1868631;76;21172;-75
2021/04/29 07:02:15;;;;;;;;;;;;;;;13.33;82.80;101454.58;1868551;76;20134;-76
2021/04/29 07:04:44;;;;;;;;;;;;;;;13.57;82.47;101448.22;1847167;75;20175;-75
2021/04/29 07:07:15;;;;;;;;;;;;;;;13.83;81.66;101446.48;1837395;77;20770;-75
2021/04/29 07:09:43;;;;;;;;;;;;;;;14.03;81.49;101449.44;1835720;76;20584;-74
2021/04/29 07:12:13;;;;;;;;;;;;;;;14.17;80.72;101448.02;1835441;76;21412;-75
2021/04/29 07:14:41;;;;;;;;;;;;;;;14.24;78.45;101453.65;1835688;76;20318;-79
2021/04/29 07:17:10;;;;;;;;;;;;;;;14.29;76.39;101459.41;1836898;78;20321;-74
2021/04/29 07:19:41;;;;;;;;;;;;;;;14.34;76.53;101463.02;1836917;78;20895;-75
2021/04/29 07:22:09;;;;;;;;;;;;;;;14.50;76.45;101463.17;1836565;76;20239;-75
2021/04/29 07:24:38;;;;;;;;;;;;;;;14.58;75.95;101461.34;1833621;76;21186;-75
2021/04/29 07:27:11;;;;;;;;;;;;;;;14.69;75.90;101463.55;1834626;77;20627;-77
2021/04/29 07:29:41;;;;;;;;;;;;;;;14.79;75.60;101464.58;1837030;76;20718;-76
2021/04/29 07:32:10;;;;;;;;;;;;;;;14.80;74.61;101459.69;1835683;76;20338;-76
2021/04/29 07:34:41;;;;;;;;;;;;;;;14.82;74.67;101451.30;1835503;76;20342;-75
2021/04/29 07:37:10;;;;;;;;;;;;;;;14.73;74.21;101449.34;1836178;78;21186;-76
2021/04/29 07:39:40;;;;;;;;;;;;;;;14.61;75.11;101445.45;1836031;78;20291;-75
2021/04/29 07:42:08;;;;;;;;;;;;;;;14.46;76.14;101437.36;1837053;78;20338;-75
2021/04/29 07:44:39;;;;;;;;;;;;;;;14.25;77.02;101438.36;1836001;78;20235;-75
2021/04/29 07:47:08;;;;;;;;;;;;;;;14.14;77.87;101441.70;1835925;78;20709;-76
2021/04/29 07:49:38;;;;;;;;;;;;;;;14.11;78.93;101441.91;1835461;76;21185;-75
2021/04/29 07:52:06;;;;;;;;;;;;;;;14.09;78.98;101434.66;1835841;78;20125;-75
2021/04/29 07:54:35;;;;;;;;;;;;;;;14.08;78.68;101438.67;1836031;78;20497;-75
2021/04/29 07:57:03;;;;;;;;;;;;;;;14.06;80.16;101441.86;1836579;78;20207;-77
2021/04/29 07:59:32;;;;;;;;;;;;;;;14.05;80.51;101444.94;1836187;77;20278;-76
2021/04/29 08:02:03;;;;;;;;;;;;;;;14.06;80.40;101445.78;1835722;78;22354;-77
2021/04/29 08:04:32;;;;;;;;;;;;;;;14.12;79.75;101453.19;1836020;77;20580;-76
2021/04/29 08:07:00;;;;;;;;;;;;;;;14.17;80.78;101447.17;1835051;77;20346;-76
2021/04/29 08:09:31;;;;;;;;;;;;;;;14.27;81.14;101456.05;1834853;77;20868;-75
2021/04/29 08:12:01;;;;;;;;;;;;;;;14.42;79.25;101454.20;1835797;78;20220;-75
2021/04/29 08:14:36;;;;;;;;;;;;;;;14.60;78.89;101461.59;1808917;78;21146;-77
2021/04/29 08:17:04;;;;;;;;;;;;;;;14.84;77.58;101456.39;1835368;76;20639;-76
2021/04/29 08:19:35;;;;;;;;;;;;;;;15.07;76.24;101456.06;1835597;78;20132;-76
2021/04/29 08:22:03;;;;;;;;;;;;;;;15.18;76.40;101458.28;1835178;78;20251;-77
2021/04/29 08:24:31;;;;;;;;;;;;;;;15.35;73.84;101452.63;1836137;77;20293;-76
2021/04/29 08:27:00;;;;;;;;;;;;;;;15.47;73.96;101454.00;1835565;76;21184;-76
2021/04/29 08:29:29;;;;;;;;;;;;;;;15.56;73.57;101442.41;1835987;78;20246;-76
2021/04/29 08:31:59;;;;;;;;;;;;;;;15.62;73.76;101442.42;1837230;78;20148;-78
2021/04/29 08:34:31;;;;;;;;;;;;;;;15.67;73.96;101445.05;1835901;77;20904;-74
2021/04/29 08:37:02;;;;;;;;;;;;;;;15.77;73.00;101446.03;1833271;76;20505;-73
2021/04/29 08:39:33;;;;;;;;;;;;;;;15.86;70.40;101442.72;1836971;78;21187;-75
2021/04/29 08:42:02;;;;;;;;;;;;;;;15.85;69.39;101452.84;1834815;77;20160;-75
2021/04/29 08:44:32;;;;;;;;;;;;;;;15.91;70.07;101452.02;1833321;77;20603;-79
2021/04/29 08:47:03;;;;;;;;;;;;;;;16.04;70.12;101457.52;1831745;77;20227;-77
2021/04/29 08:49:34;;;;;;;;;;;;;;;16.21;69.86;101454.42;1827337;77;20254;-77
2021/04/29 08:52:03;;;;;;;;;;;;;;;16.35;68.78;101458.61;1832513;77;21247;-77
2021/04/29 08:54:36;;;;;;;;;;;;;;;16.41;67.15;101462.06;1832527;77;20632;-78
2021/04/29 08:57:05;;;;;;;;;;;;;;;16.49;66.14;101454.92;1832737;78;20223;-76
2021/04/29 08:59:34;;;;;;;;;;;;;;;16.60;67.45;101453.15;1831787;77;20243;-77
2021/04/29 09:02:02;;;;;;;;;;;;;;;16.58;68.17;101453.76;1832056;78;20137;-76
2021/04/29 09:04:43;;;;;;;;;;;;;;;16.66;67.56;101454.45;1831944;78;21182;-77
2021/04/29 09:07:18;;;;;;;;;;;;;;;16.69;65.77;101458.97;1832033;77;20592;-76
2021/04/29 09:09:47;;;;;;;;;;;;;;;16.80;64.50;101456.83;1843760;77;20476;-76
2021/04/29 09:12:14;;;;;;;;;;;;;;;16.83;63.66;101461.34;1857492;77;20249;-76
2021/04/29 09:14:44;;;;;;;;;;;;;;;16.98;63.79;101467.62;1858185;77;20284;-79
2021/04/29 09:17:17;;;;;;;;;;;;;;;17.12;63.13;101455.08;1833710;77;21319;-78
2021/04/29 09:19:48;;;;;;;;;;;;;;;17.26;62.54;101453.47;1797526;78;20508;-79
2021/04/29 09:22:22;;;;;;;;;;;;;;;17.34;63.33;101453.69;1797983;78;20249;-77
2021/04/29 09:24:50;;;;;;;;;;;;;;;17.41;61.04;101450.92;1828616;78;20287;-79
2021/04/29 09:27:23;;;;;;;;;;;;;;;17.54;58.28;101451.22;1831882;77;20672;-78
2021/04/29 09:30:01;;;;;;;;;;;;;;;17.55;59.01;101446.34;1831816;78;21137;-76
2021/04/29 09:32:34;;;;;;;;;;;;;;;17.59;59.76;101449.07;1771655;81;20284;-77
2021/04/29 09:35:05;;;;;;;;;;;;;;;17.68;60.57;101443.05;1772422;81;20240;-77
2021/04/29 09:37:37;;;;;;;;;;;;;;;17.75;60.27;101443.73;1772569;81;20339;-78
2021/04/29 09:40:25;;;;;;;;;;;;;;;17.87;59.61;101437.92;1772454;81;20244;-77
2021/04/29 09:42:59;;;;;;;;;;;;;;;17.96;57.52;101437.98;1755760;81;21587;-72
2021/04/29 09:45:35;;;;;;;;;;;;;;;17.87;56.80;101435.30;1924847;73;20270;-78
2021/04/29 09:48:07;;;;;;;;;;;;;;;17.76;57.03;101433.59;1892381;76;20490;-73
2021/04/29 09:50:41;;;;;;;;;;;;;;;17.90;56.94;101437.19;1874342;76;22166;-75
2021/04/29 09:53:11;;;;;;;;;;;;;;;18.36;56.43;101443.78;1871853;74;20138;-78
2021/04/29 09:55:44;;;;;;;;;;;;;;;18.37;56.53;101438.41;1857092;76;20195;-74
2021/04/29 09:58:16;;;;;;;;;;;;;;;18.36;56.15;101442.47;1857189;77;20484;-76
2021/04/29 10:00:47;;;;;;;;;;;;;;;18.36;56.80;101439.84;1876749;74;20499;-72
2021/04/29 10:03:18;;;;;;;;;;;;;;;18.80;54.34;101438.14;1857340;76;21223;-78
2021/04/29 10:05:53;;;;;;;;;;;;;;;18.99;54.69;101433.39;1857341;75;20336;-75
2021/04/29 10:08:21;;;;;;;;;;;;;;;18.86;54.32;101432.34;1874254;74;20125;-76
2021/04/29 10:10:52;;;;;;;;;;;;;;;18.61;54.39;101432.83;1876139;76;20323;-78
2021/04/29 10:13:21;;;;;;;;;;;;;;;18.57;55.16;101428.00;1891613;75;20224;-77
2021/04/29 10:15:50;;;;;;;;;;;;;;;19.69;53.39;101415.22;1870905;75;21249;-79
2021/04/29 10:18:19;;;;;;;;;;;;;;;20.30;51.49;101411.62;1869814;76;20209;-80
2021/04/29 10:20:48;;;;;;;;;;;;;;;21.01;47.32;101407.32;1850657;76;20224;-78
2021/04/29 10:23:18;;;;;;;;;;;;;;;21.28;45.75;101403.81;1869863;76;20475;-74
2021/04/29 10:25:51;;;;;;;;;;;;;;;20.70;47.29;101399.42;1809165;76;20299;-75
2021/04/29 10:28:34;;;;;;;;;;;;;;;21.10;48.43;101394.08;1802371;78;22254;-75
2021/04/29 10:31:22;;;;;;;;;;;;;;;21.94;45.93;101389.13;1802628;79;20129;-73
2021/04/29 10:33:55;;;;;;;;;;;;;;;21.96;44.14;101377.05;1802183;78;20130;-76
2021/04/29 10:36:46;;;;;;;;;;;;;;;21.85;45.25;101385.23;1802508;78;20650;-79
2021/04/29 10:39:19;;;;;;;;;;;;;;;22.30;43.74;101383.67;1803402;78;20638;-75
2021/04/29 10:42:06;;;;;;;;;;;;;;;22.34;43.30;101381.85;1818456;78;21231;-77
2021/04/29 10:44:44;;;;;;;;;;;;;;;21.88;44.05;101377.83;1838016;76;20148;-74
2021/04/29 10:47:26;;;;;;;;;;;;;;;21.58;44.40;101373.84;1821851;78;20132;-75
2021/04/29 10:50:11;;;;;;;;;;;;;;;22.22;44.17;101380.48;1823858;78;20373;-76
2021/04/29 10:52:56;;;;;;;;;;;;;;;22.49;43.54;101384.23;1839431;78;20215;-77
2021/04/29 10:55:30;;;;;;;;;;;;;;;22.25;42.49;101380.16;1838578;78;21190;-76
2021/04/29 10:58:05;;;;;;;;;;;;;;;21.94;42.34;101375.07;1842740;76;20160;-78
2021/04/29 11:00:42;;;;;;;;;;;;;;;21.77;43.54;101374.11;1873592;76;20495;-74
2021/04/29 11:03:13;;;;;;;;;;;;;;;21.88;43.38;101376.50;1867281;76;20578;-76
2021/04/29 11:05:41;;;;;;;;;;;;;;;21.93;42.47;101372.08;1873460;76;20220;-76
2021/04/29 11:08:12;;;;;;;;;;;;;;;22.42;42.76;101377.09;1873182;76;21599;-75
2021/04/29 11:10:40;;;;;;;;;;;;;;;22.75;41.94;101377.52;1848292;76;20727;-75
2021/04/29 11:13:13;;;;;;;;;;;;;;;22.86;41.08;101365.81;1828616;76;20678;-74
2021/04/29 11:15:41;;;;;;;;;;;;;;;22.40;41.87;101365.34;1804363;78;20575;-75
2021/04/29 11:18:16;;;;;;;;;;;;;;;22.18;42.01;101367.77;1806239;79;20531;-75
2021/04/29 11:20:53;;;;;;;;;;;;;;;22.13;42.68;101369.55;1824114;76;22157;-74
2021/04/29 11:23:28;;;;;;;;;;;;;;;21.99;43.93;101367.48;1838985;78;20294;-74
2021/04/29 11:26:08;;;;;;;;;;;;;;;21.97;43.26;101367.66;1836701;78;20551;-75
2021/04/29 11:28:36;;;;;;;;;;;;;;;22.76;41.10;101366.45;1846921;76;20236;-76
2021/04/29 11:31:05;;;;;;;;;;;;;;;23.69;38.71;101365.97;1852298;76;20226;-77
2021/04/29 11:33:35;;;;;;;;;;;;;;;24.17;37.01;101363.20;1829417;76;21191;-76
2021/04/29 11:36:19;;;;;;;;;;;;;;;24.13;36.58;101361.88;1806088;78;20138;-77
2021/04/29 11:39:00;;;;;;;;;;;;;;;23.97;37.88;101358.42;1806605;78;20226;-75
2021/04/29 11:41:35;;;;;;;;;;;;;;;23.96;37.40;101363.42;1806336;79;20257;-75
2021/04/29 11:44:11;;;;;;;;;;;;;;;24.08;35.72;101360.23;1777743;77;20475;-76
2021/04/29 11:46:40;;;;;;;;;;;;;;;24.49;35.73;101372.83;1817844;76;21189;-79
2021/04/29 11:49:13;;;;;;;;;;;;;;;24.96;34.65;101362.09;1830172;76;20335;-74
2021/04/29 11:51:45;;;;;;;;;;;;;;;25.12;33.72;101361.12;1813112;76;20240;-75
2021/04/29 11:54:17;;;;;;;;;;;;;;;24.78;34.29;101356.72;1801647;78;20215;-73
2021/04/29 11:56:47;;;;;;;;;;;;;;;24.68;33.55;101352.47;1844229;76;20249;-74
2021/04/29 11:59:16;;;;;;;;;;;;;;;24.46;34.14;101363.05;1867577;76;21291;-76
2021/04/29 12:01:56;;;;;;;;;;;;;;;24.15;34.19;101354.57;1824704;76;20133;-75
2021/04/29 12:04:24;;;;;;;;;;;;;;;24.06;34.16;101351.59;1801926;79;20113;-75
2021/04/29 12:06:57;;;;;;;;;;;;;;;24.10;34.67;101353.41;1801889;78;20113;-75
2021/04/29 12:09:27;;;;;;;;;;;;;;;23.88;33.78;101350.18;1825809;78;20253;-73
2021/04/29 12:12:09;;;;;;;;;;;;;;;23.65;34.21;101350.91;1801464;79;21197;-76
2021/04/29 12:14:37;;;;;;;;;;;;;;;23.52;34.28;101345.30;1801862;78;20192;-77
2021/04/29 12:17:05;;;;;;;;;;;;;;;23.70;33.84;101339.31;1802224;79;20232;-78
2021/04/29 12:19:37;;;;;;;;;;;;;;;23.89;33.63;101334.12;1802508;79;20205;-75
2021/04/29 12:22:07;;;;;;;;;;;;;;;23.96;33.22;101342.22;1802029;78;20503;-77
2021/04/29 12:24:42;;;;;;;;;;;;;;;23.95;33.55;101340.05;1802207;79;22109;-77
2021/04/29 12:27:16;;;;;;;;;;;;;;;23.99;32.77;101341.87;1802288;79;20301;-78
2021/04/29 12:29:46;;;;;;;;;;;;;;;24.42;32.10;101341.35;1802132;78;20522;-77
2021/04/29 12:32:16;;;;;;;;;;;;;;;25.43;31.04;101334.47;1802297;79;20165;-77
2021/04/29 12:34:45;;;;;;;;;;;;;;;25.94;28.63;101336.76;1802014;79;20229;-78
2021/04/29 12:37:20;;;;;;;;;;;;;;;26.51;28.26;101344.84;1803312;79;21152;-75
2021/04/29 12:39:47;;;;;;;;;;;;;;;27.56;27.34;101335.98;1802382;78;20189;-75
2021/04/29 12:42:18;;;;;;;;;;;;;;;28.21;25.83;101337.34;1801796;78;20566;-75
2021/04/29 12:44:50;;;;;;;;;;;;;;;28.38;25.91;101331.96;1808922;78;20295;-74
2021/04/29 12:47:25;;;;;;;;;;;;;;;28.30;25.12;101327.61;1829433;78;20144;-75
2021/04/29 12:50:04;;;;;;;;;;;;;;;28.26;25.49;101324.23;1829609;78;21189;-76
2021/04/29 12:52:33;;;;;;;;;;;;;;;28.24;25.28;101324.95;1829652;78;20219;-76